Time;durP1;ratioP1;P1;durP2;ratioP2;P2;SDS_P1;SDS_P2;PMS_P1;PMS_P2;Temp;Humidity;BMP_temperature;BMP_pressure;BME280_temperature;BME280_humidity;BME280_pressure;Samples;Min_cycle;Max_cycle;Signal;HPM_P1;HPM_P2
2023/04/02 05:00:57;;;;;;;;;14.33;10.67;;;;;;;;5673894;22;46677;-57
2023/04/02 05:03:29;;;;;;;;;13.33;10.00;;;;;;;;4973403;28;45524;-58
2023/04/02 05:05:59;;;;;;;;;14.00;10.33;;;;;;;;4975938;28;46314;-58
2023/04/02 05:08:26;;;;;;;;;15.33;12.00;;;;;;;;4974250;28;45415;-58
2023/04/02 05:10:56;;;;;;;;;15.67;13.33;;;;;;;;4963877;28;45585;-58
2023/04/02 05:13:27;;;;;;;;;10.67;9.00;;;;;;;;4987534;28;45904;-57
2023/04/02 05:16:10;;;;;;;;;12.00;9.33;;;;;;;;4979063;28;46415;-58
2023/04/02 05:18:54;;;;;;;;;13.33;8.67;;;;;;;;4976719;28;45297;-57
2023/04/02 05:21:19;;;;;;;;;12.33;11.00;;;;;;;;4979968;28;45342;-58
2023/04/02 05:23:48;;;;;;;;;13.00;8.00;;;;;;;;4977921;28;45461;-57
2023/04/02 05:26:31;;;;;;;;;10.00;10.00;;;;;;;;4976392;28;45446;-58
2023/04/02 05:29:21;;;;;;;;;9.33;8.00;;;;;;;;4977526;28;45554;-53
2023/04/02 05:31:47;;;;;;;;;13.00;8.67;;;;;;;;4971835;28;45721;-54
2023/04/02 05:34:13;;;;;;;;;10.67;9.00;;;;;;;;4976071;28;45886;-56
2023/04/02 05:36:38;;;;;;;;;14.33;9.33;;;;;;;;4974391;28;46801;-54
2023/04/02 05:39:08;;;;;;;;;12.00;10.33;;;;;;;;4976485;28;45282;-56
2023/04/02 05:41:37;;;;;;;;;14.33;13.00;;;;;;;;4977573;28;45530;-55
2023/04/02 05:44:10;;;;;;;;;13.00;11.00;;;;;;;;4976343;28;45523;-56
2023/04/02 05:46:48;;;;;;;;;13.67;12.00;;;;;;;;4962588;28;45982;-55
2023/04/02 05:49:19;;;;;;;;;14.67;11.00;;;;;;;;4978235;28;45788;-55
2023/04/02 05:51:46;;;;;;;;;15.67;12.33;;;;;;;;4977145;28;45496;-56
2023/04/02 05:54:15;;;;;;;;;14.67;11.00;;;;;;;;4976288;28;45372;-59
2023/04/02 05:56:42;;;;;;;;;11.33;8.00;;;;;;;;4976798;28;46865;-55
2023/04/02 05:59:15;;;;;;;;;14.67;9.00;;;;;;;;4976672;28;45446;-54
2023/04/02 06:01:46;;;;;;;;;7.00;5.00;;;;;;;;4975479;28;45478;-58
2023/04/02 06:04:11;;;;;;;;;10.67;7.33;;;;;;;;4969678;28;46012;-56
2023/04/02 06:06:49;;;;;;;;;9.67;7.00;;;;;;;;4974573;28;45479;-56
2023/04/02 06:09:18;;;;;;;;;6.67;6.67;;;;;;;;4976019;28;45648;-55
2023/04/02 06:11:46;;;;;;;;;11.00;8.67;;;;;;;;4976841;28;45532;-56
2023/04/02 06:14:12;;;;;;;;;7.00;7.00;;;;;;;;4978184;28;45608;-55
2023/04/02 06:16:38;;;;;;;;;10.33;7.33;;;;;;;;4977146;28;46146;-54
2023/04/02 06:19:12;;;;;;;;;9.00;6.67;;;;;;;;4978023;28;46301;-53
2023/04/02 06:21:44;;;;;;;;;10.33;7.67;;;;;;;;4975469;28;45401;-54
2023/04/02 06:24:13;;;;;;;;;9.00;7.33;;;;;;;;4971095;28;46089;-55
2023/04/02 06:26:40;;;;;;;;;8.00;8.00;;;;;;;;4977284;28;45427;-55
2023/04/02 06:29:15;;;;;;;;;5.00;4.00;;;;;;;;4975789;28;45728;-55
2023/04/02 06:31:46;;;;;;;;;7.67;7.00;;;;;;;;4974037;28;45705;-55
2023/04/02 06:34:22;;;;;;;;;9.00;6.00;;;;;;;;4974225;28;46166;-56
2023/04/02 06:36:48;;;;;;;;;9.00;7.33;;;;;;;;4977042;28;46212;-55
2023/04/02 06:39:19;;;;;;;;;9.67;8.00;;;;;;;;4974253;28;45497;-55
2023/04/02 06:41:45;;;;;;;;;8.33;7.33;;;;;;;;4976375;28;45396;-56
2023/04/02 06:44:19;;;;;;;;;10.00;8.67;;;;;;;;4974539;28;45842;-52
2023/04/02 06:46:47;;;;;;;;;11.33;6.67;;;;;;;;4976634;28;46610;-55
2023/04/02 06:49:18;;;;;;;;;9.33;7.00;;;;;;;;4976439;28;45590;-53
2023/04/02 06:51:44;;;;;;;;;6.67;5.00;;;;;;;;4977732;28;45305;-55
2023/04/02 06:54:16;;;;;;;;;6.67;6.67;;;;;;;;4977598;28;46407;-54
2023/04/02 06:56:43;;;;;;;;;8.33;6.00;;;;;;;;4975463;28;46167;-55
2023/04/02 06:59:09;;;;;;;;;8.33;7.00;;;;;;;;4976644;28;45468;-54
2023/04/02 07:01:36;;;;;;;;;7.33;6.33;;;;;;;;4978015;28;45425;-55
2023/04/02 07:04:01;;;;;;;;;12.00;6.67;;;;;;;;4976605;28;45469;-54
2023/04/02 07:06:26;;;;;;;;;6.33;6.33;;;;;;;;4977938;28;47667;-55
2023/04/02 07:08:52;;;;;;;;;9.00;9.00;;;;;;;;4977328;28;46429;-55
2023/04/02 07:11:20;;;;;;;;;8.67;7.33;;;;;;;;4976845;28;45351;-55
2023/04/02 07:13:45;;;;;;;;;8.33;7.33;;;;;;;;4976610;28;45822;-53
2023/04/02 07:16:14;;;;;;;;;7.33;5.33;;;;;;;;4975625;28;45453;-55
2023/04/02 07:18:40;;;;;;;;;7.00;7.00;;;;;;;;4975270;28;45388;-55
2023/04/02 07:21:05;;;;;;;;;10.33;8.33;;;;;;;;4977364;28;45504;-55
2023/04/02 07:23:30;;;;;;;;;8.33;8.33;;;;;;;;4973556;28;45483;-55
2023/04/02 07:25:57;;;;;;;;;9.00;9.00;;;;;;;;4975108;28;45257;-55
2023/04/02 07:28:22;;;;;;;;;3.33;2.00;;;;;;;;4972242;28;46868;-55
2023/04/02 07:30:47;;;;;;;;;12.33;9.00;;;;;;;;4977515;28;45389;-54
2023/04/02 07:33:14;;;;;;;;;10.00;10.00;;;;;;;;4974069;28;45520;-55
2023/04/02 07:35:39;;;;;;;;;8.33;8.33;;;;;;;;4977799;28;45435;-55
2023/04/02 07:38:04;;;;;;;;;9.33;8.67;;;;;;;;4974733;28;45453;-53
2023/04/02 07:40:29;;;;;;;;;8.00;8.00;;;;;;;;4980329;28;45627;-55
2023/04/02 07:42:55;;;;;;;;;8.33;8.33;;;;;;;;4976139;28;45584;-54
2023/04/02 07:45:20;;;;;;;;;9.00;8.00;;;;;;;;4977493;28;45544;-53
2023/04/02 07:47:45;;;;;;;;;12.67;9.00;;;;;;;;4975735;28;45336;-56
2023/04/02 07:50:10;;;;;;;;;9.33;9.33;;;;;;;;4976854;28;45456;-55
2023/04/02 07:52:42;;;;;;;;;14.00;10.00;;;;;;;;4972466;28;45494;-53
2023/04/02 07:55:11;;;;;;;;;8.33;7.00;;;;;;;;4974085;28;46031;-53
2023/04/02 07:57:56;;;;;;;;;10.67;8.67;;;;;;;;4976126;28;45539;-53
2023/04/02 08:00:21;;;;;;;;;9.33;9.00;;;;;;;;4973932;28;46312;-55
2023/04/02 08:02:47;;;;;;;;;12.33;10.00;;;;;;;;4974173;28;45551;-53
2023/04/02 08:05:12;;;;;;;;;13.00;10.67;;;;;;;;4974408;28;46073;-55
2023/04/02 08:07:38;;;;;;;;;15.00;10.00;;;;;;;;4975115;28;45592;-55
2023/04/02 08:10:04;;;;;;;;;11.33;11.33;;;;;;;;4977489;28;45427;-53
2023/04/02 08:12:30;;;;;;;;;16.33;13.33;;;;;;;;4974625;28;45559;-55
2023/04/02 08:14:55;;;;;;;;;12.00;11.00;;;;;;;;4976465;28;46168;-53
2023/04/02 08:17:20;;;;;;;;;16.67;13.67;;;;;;;;4973182;28;45527;-52
2023/04/02 08:19:46;;;;;;;;;16.33;15.00;;;;;;;;4974430;28;45574;-52
2023/04/02 08:22:11;;;;;;;;;13.33;12.33;;;;;;;;4972746;28;45577;-53
2023/04/02 08:24:36;;;;;;;;;17.67;17.67;;;;;;;;4973690;28;45964;-49
2023/04/02 08:27:02;;;;;;;;;22.33;17.00;;;;;;;;4972754;28;45647;-53
2023/04/02 08:29:31;;;;;;;;;20.00;18.33;;;;;;;;4974160;28;45485;-51
2023/04/02 08:31:59;;;;;;;;;19.33;19.33;;;;;;;;4973452;28;45697;-52
2023/04/02 08:34:24;;;;;;;;;19.00;17.33;;;;;;;;4979996;28;45721;-49
2023/04/02 08:36:50;;;;;;;;;18.33;14.67;;;;;;;;4978657;28;45474;-52
2023/04/02 08:39:15;;;;;;;;;14.67;12.67;;;;;;;;4979379;28;45687;-49
2023/04/02 08:41:46;;;;;;;;;14.33;14.33;;;;;;;;4977978;28;45437;-50
2023/04/02 08:44:21;;;;;;;;;14.67;12.67;;;;;;;;4971617;28;45845;-53
2023/04/02 08:46:49;;;;;;;;;14.33;13.33;;;;;;;;4978222;28;45366;-54
2023/04/02 08:49:21;;;;;;;;;8.00;8.00;;;;;;;;4977129;28;45620;-53
2023/04/02 08:51:47;;;;;;;;;12.33;11.00;;;;;;;;4977945;28;45460;-51
2023/04/02 08:54:18;;;;;;;;;12.33;11.00;;;;;;;;4975245;28;46951;-50
2023/04/02 08:56:50;;;;;;;;;11.33;11.33;;;;;;;;4975901;28;45512;-53
2023/04/02 08:59:23;;;;;;;;;11.33;9.00;;;;;;;;4978925;28;45371;-58
2023/04/02 09:01:51;;;;;;;;;17.67;15.00;;;;;;;;4977509;28;45453;-58
2023/04/02 09:04:18;;;;;;;;;14.33;12.00;;;;;;;;4976789;28;46063;-58
2023/04/02 09:06:44;;;;;;;;;10.67;8.33;;;;;;;;4977537;28;45461;-58
2023/04/02 09:09:12;;;;;;;;;15.00;13.00;;;;;;;;4978938;28;45365;-58
2023/04/02 09:11:50;;;;;;;;;14.33;12.00;;;;;;;;4978079;28;45352;-58
2023/04/02 09:14:19;;;;;;;;;16.00;14.33;;;;;;;;4977095;28;46281;-58
2023/04/02 09:16:47;;;;;;;;;15.00;13.67;;;;;;;;4978484;28;45409;-58
2023/04/02 09:19:15;;;;;;;;;13.67;11.67;;;;;;;;4972575;28;45426;-58
2023/04/02 09:21:42;;;;;;;;;19.67;11.33;;;;;;;;4975080;28;45519;-58
2023/04/02 09:24:10;;;;;;;;;15.00;10.00;;;;;;;;4973048;28;45290;-58
2023/04/02 09:26:36;;;;;;;;;19.33;15.33;;;;;;;;4976254;28;45670;-58
2023/04/02 09:29:01;;;;;;;;;13.67;11.67;;;;;;;;4976003;28;45399;-58
2023/04/02 09:31:39;;;;;;;;;17.00;13.67;;;;;;;;4963147;28;45380;-58
2023/04/02 09:34:26;;;;;;;;;17.00;15.67;;;;;;;;4975783;28;47109;-58
2023/04/02 09:36:51;;;;;;;;;15.33;14.67;;;;;;;;4978860;28;45411;-58
2023/04/02 09:39:21;;;;;;;;;17.00;12.33;;;;;;;;4976733;28;45455;-58
2023/04/02 09:41:46;;;;;;;;;15.00;13.67;;;;;;;;4978369;28;46421;-58
2023/04/02 09:44:22;;;;;;;;;15.00;12.67;;;;;;;;4979097;28;46054;-58
2023/04/02 09:46:58;;;;;;;;;10.33;9.00;;;;;;;;4975288;28;45468;-58
2023/04/02 09:49:24;;;;;;;;;11.00;11.00;;;;;;;;4976819;28;45420;-58
2023/04/02 09:52:05;;;;;;;;;14.67;14.00;;;;;;;;4977401;28;45539;-58
2023/04/02 09:54:30;;;;;;;;;13.00;11.33;;;;;;;;4963177;28;46326;-58
2023/04/02 09:57:00;;;;;;;;;16.00;11.00;;;;;;;;4976947;28;45397;-58
2023/04/02 09:59:25;;;;;;;;;17.33;13.00;;;;;;;;4979318;28;45509;-58
2023/04/02 10:01:53;;;;;;;;;12.33;11.33;;;;;;;;4977204;28;45546;-58
2023/04/02 10:04:31;;;;;;;;;10.67;10.67;;;;;;;;4978326;28;47199;-58
2023/04/02 10:06:57;;;;;;;;;11.33;9.33;;;;;;;;4977932;28;45717;-57
2023/04/02 10:09:41;;;;;;;;;9.67;9.33;;;;;;;;4978911;28;45407;-58
2023/04/02 10:12:11;;;;;;;;;14.33;10.00;;;;;;;;4975688;28;45686;-58
2023/04/02 10:14:38;;;;;;;;;10.33;10.00;;;;;;;;4978746;28;45464;-58
2023/04/02 10:17:11;;;;;;;;;17.00;11.67;;;;;;;;4976895;28;45513;-58
2023/04/02 10:19:37;;;;;;;;;8.33;8.00;;;;;;;;4977583;28;45447;-58
2023/04/02 10:22:05;;;;;;;;;12.00;11.67;;;;;;;;4977117;28;45374;-58
2023/04/02 10:24:30;;;;;;;;;15.00;11.00;;;;;;;;4976931;28;46207;-58
2023/04/02 10:27:01;;;;;;;;;9.33;9.33;;;;;;;;4977359;28;45284;-58
2023/04/02 10:29:32;;;;;;;;;13.00;11.33;;;;;;;;4967859;28;45396;-58
2023/04/02 10:32:10;;;;;;;;;13.00;11.33;;;;;;;;4976724;28;47534;-58
2023/04/02 10:34:44;;;;;;;;;14.33;11.00;;;;;;;;4978971;28;45937;-60
2023/04/02 10:37:10;;;;;;;;;16.67;11.00;;;;;;;;4974833;28;45464;-58
2023/04/02 10:39:38;;;;;;;;;10.00;10.00;;;;;;;;4975454;28;45335;-58
2023/04/02 10:42:06;;;;;;;;;12.33;10.00;;;;;;;;4974953;28;45295;-58
2023/04/02 10:44:50;;;;;;;;;11.67;11.67;;;;;;;;4977332;28;45727;-58
2023/04/02 10:47:34;;;;;;;;;12.67;10.33;;;;;;;;4975475;28;45369;-58
2023/04/02 10:49:59;;;;;;;;;13.33;13.33;;;;;;;;4978419;28;45531;-58
2023/04/02 10:52:38;;;;;;;;;16.00;16.00;;;;;;;;4975722;28;45468;-58
2023/04/02 10:55:07;;;;;;;;;20.67;14.33;;;;;;;;4975116;28;46302;-58
2023/04/02 10:57:37;;;;;;;;;19.00;16.33;;;;;;;;4976533;28;45402;-58
2023/04/02 11:00:05;;;;;;;;;20.00;17.00;;;;;;;;4977545;28;45400;-58
2023/04/02 11:02:43;;;;;;;;;19.00;18.00;;;;;;;;4975947;28;45514;-58
2023/04/02 11:05:21;;;;;;;;;17.67;16.00;;;;;;;;4974813;28;46511;-58
2023/04/02 11:07:54;;;;;;;;;24.33;19.00;;;;;;;;4970933;28;45551;-58
2023/04/02 11:10:20;;;;;;;;;18.00;16.00;;;;;;;;4977074;28;46429;-58
2023/04/02 11:12:57;;;;;;;;;21.00;17.00;;;;;;;;4976623;28;45519;-58
2023/04/02 11:15:22;;;;;;;;;17.33;16.67;;;;;;;;4975477;28;46236;-58
2023/04/02 11:17:48;;;;;;;;;18.67;17.33;;;;;;;;4976667;28;45460;-58
2023/04/02 11:20:32;;;;;;;;;18.33;12.00;;;;;;;;4978323;28;45452;-58
2023/04/02 11:23:05;;;;;;;;;16.33;14.67;;;;;;;;4975648;28;45657;-58
2023/04/02 11:25:30;;;;;;;;;20.67;15.67;;;;;;;;4976992;28;45433;-58
2023/04/02 11:28:11;;;;;;;;;17.67;10.33;;;;;;;;4976644;28;45534;-58
2023/04/02 11:30:36;;;;;;;;;17.33;15.00;;;;;;;;4972634;28;45576;-58
2023/04/02 11:33:20;;;;;;;;;24.67;18.00;;;;;;;;4976563;28;45444;-58
2023/04/02 11:35:45;;;;;;;;;16.33;14.00;;;;;;;;4977168;28;45493;-58
2023/04/02 11:38:10;;;;;;;;;14.00;11.67;;;;;;;;4973196;28;45496;-58
2023/04/02 11:40:40;;;;;;;;;14.75;14.00;;;;;;;;4977288;28;45317;-58
2023/04/02 11:43:24;;;;;;;;;12.33;11.33;;;;;;;;4976297;28;45644;-58
2023/04/02 11:45:53;;;;;;;;;12.67;10.67;;;;;;;;4958788;28;47152;-57
2023/04/02 11:48:18;;;;;;;;;15.33;10.67;;;;;;;;4975869;28;45877;-57
2023/04/02 11:50:44;;;;;;;;;16.00;9.00;;;;;;;;4977666;28;45463;-57
2023/04/02 11:53:09;;;;;;;;;15.67;15.33;;;;;;;;4975426;28;45403;-57
2023/04/02 11:55:36;;;;;;;;;24.67;17.00;;;;;;;;4978467;28;45626;-57
2023/04/02 11:58:21;;;;;;;;;17.67;16.00;;;;;;;;4980580;28;45661;-57
2023/04/02 12:01:10;;;;;;;;;14.00;11.00;;;;;;;;4977054;28;45326;-57
2023/04/02 12:03:48;;;;;;;;;19.50;18.00;;;;;;;;4977295;28;45598;-57
2023/04/02 12:06:28;;;;;;;;;23.67;20.67;;;;;;;;4980734;28;46212;-57
2023/04/02 12:09:04;;;;;;;;;20.67;15.00;;;;;;;;4980160;28;45520;-57
2023/04/02 12:11:31;;;;;;;;;17.33;13.33;;;;;;;;4981252;28;45600;-57
2023/04/02 12:13:57;;;;;;;;;20.00;15.33;;;;;;;;4981421;28;45535;-57
2023/04/02 12:16:23;;;;;;;;;17.67;15.00;;;;;;;;4963203;28;46042;-57
2023/04/02 12:18:52;;;;;;;;;12.33;12.33;;;;;;;;4981011;28;45495;-57
2023/04/02 12:21:19;;;;;;;;;12.00;11.67;;;;;;;;4980868;28;45508;-57
2023/04/02 12:23:46;;;;;;;;;13.67;10.67;;;;;;;;4979138;28;45306;-58
2023/04/02 12:26:31;;;;;;;;;11.00;11.00;;;;;;;;4980450;28;47037;-58
2023/04/02 12:29:15;;;;;;;;;16.00;14.00;;;;;;;;4980246;28;45382;-58
2023/04/02 12:31:44;;;;;;;;;18.67;15.33;;;;;;;;4980896;28;45393;-58
2023/04/02 12:34:17;;;;;;;;;15.00;12.67;;;;;;;;4979888;28;45667;-58
2023/04/02 12:36:51;;;;;;;;;15.33;11.33;;;;;;;;4979659;28;46250;-59
2023/04/02 12:39:17;;;;;;;;;16.67;14.33;;;;;;;;4978888;28;45686;-59
2023/04/02 12:41:42;;;;;;;;;18.33;16.33;;;;;;;;4978421;28;45416;-58
2023/04/02 12:44:17;;;;;;;;;20.67;18.33;;;;;;;;4979663;28;45461;-58
2023/04/02 12:46:44;;;;;;;;;20.67;19.33;;;;;;;;4979801;28;46078;-58
2023/04/02 12:49:09;;;;;;;;;22.33;19.00;;;;;;;;4967514;28;45446;-58
2023/04/02 12:51:35;;;;;;;;;22.00;19.00;;;;;;;;4980103;28;45403;-58
2023/04/02 12:54:00;;;;;;;;;23.00;18.33;;;;;;;;4979763;28;45724;-58
2023/04/02 12:56:26;;;;;;;;;23.33;20.00;;;;;;;;4964336;28;47015;-58
2023/04/02 12:58:55;;;;;;;;;21.67;16.00;;;;;;;;4980801;28;45891;-58
2023/04/02 13:01:23;;;;;;;;;13.67;11.00;;;;;;;;4978449;28;45354;-58
2023/04/02 13:04:01;;;;;;;;;18.67;18.00;;;;;;;;4978193;28;45470;-58
2023/04/02 13:06:29;;;;;;;;;9.67;9.67;;;;;;;;4979841;28;46317;-58
2023/04/02 13:08:54;;;;;;;;;13.00;7.33;;;;;;;;4979287;28;45489;-58
2023/04/02 13:11:21;;;;;;;;;9.67;9.67;;;;;;;;4977680;28;45470;-58
2023/04/02 13:13:47;;;;;;;;;10.00;10.00;;;;;;;;4979069;28;46184;-61
2023/04/02 13:16:18;;;;;;;;;11.33;8.00;;;;;;;;4979868;28;46915;-58
2023/04/02 13:18:45;;;;;;;;;17.33;11.00;;;;;;;;4980307;28;45420;-57
2023/04/02 13:21:13;;;;;;;;;7.00;7.00;;;;;;;;4980122;28;45409;-57
2023/04/02 13:23:38;;;;;;;;;14.33;11.67;;;;;;;;4980305;28;45405;-57
2023/04/02 13:26:13;;;;;;;;;15.33;11.33;;;;;;;;4966279;28;47225;-57
2023/04/02 13:28:38;;;;;;;;;14.33;14.00;;;;;;;;4978346;28;45475;-56
2023/04/02 13:31:04;;;;;;;;;16.00;10.67;;;;;;;;4978852;28;45356;-57
2023/04/02 13:33:29;;;;;;;;;15.67;14.00;;;;;;;;4981953;28;45406;-58
2023/04/02 13:35:54;;;;;;;;;15.33;12.67;;;;;;;;4980097;28;45479;-57
2023/04/02 13:38:20;;;;;;;;;14.00;14.00;;;;;;;;4979658;28;45470;-58
2023/04/02 13:40:45;;;;;;;;;11.00;11.00;;;;;;;;4965238;28;45507;-57
2023/04/02 13:43:15;;;;;;;;;11.00;8.67;;;;;;;;4979862;28;45496;-57
2023/04/02 13:45:41;;;;;;;;;7.33;7.33;;;;;;;;4975672;28;46198;-58
2023/04/02 13:48:12;;;;;;;;;10.33;8.67;;;;;;;;4978802;28;45207;-59
2023/04/02 13:50:37;;;;;;;;;9.33;9.33;;;;;;;;4982358;28;45373;-57
2023/04/02 13:53:06;;;;;;;;;7.67;7.67;;;;;;;;4981579;28;45481;-57
2023/04/02 13:55:36;;;;;;;;;14.33;12.33;;;;;;;;4964915;28;47160;-58
2023/04/02 13:58:02;;;;;;;;;13.67;12.33;;;;;;;;4978393;28;45436;-57
2023/04/02 14:00:27;;;;;;;;;14.67;14.67;;;;;;;;4979417;28;45626;-57
2023/04/02 14:02:54;;;;;;;;;10.67;10.00;;;;;;;;4979071;28;45612;-58
2023/04/02 14:05:45;;;;;;;;;16.00;15.67;;;;;;;;4978734;28;46441;-59
2023/04/02 14:08:10;;;;;;;;;9.67;9.67;;;;;;;;4977929;28;45378;-59
2023/04/02 14:10:46;;;;;;;;;13.00;13.00;;;;;;;;4979211;28;45329;-59
2023/04/02 14:13:21;;;;;;;;;13.67;11.33;;;;;;;;4976199;28;45452;-59
2023/04/02 14:15:57;;;;;;;;;9.67;9.67;;;;;;;;4960950;28;47296;-58
2023/04/02 14:18:28;;;;;;;;;15.67;12.00;;;;;;;;4977997;28;45408;-59
2023/04/02 14:20:53;;;;;;;;;12.33;10.33;;;;;;;;4979444;28;45448;-59
2023/04/02 14:23:22;;;;;;;;;13.67;13.33;;;;;;;;4968192;28;45402;-58
2023/04/02 14:26:01;;;;;;;;;14.00;13.00;;;;;;;;4978192;28;46202;-58
2023/04/02 14:28:37;;;;;;;;;15.00;13.00;;;;;;;;4974902;28;45527;-59
2023/04/02 14:31:06;;;;;;;;;14.00;12.00;;;;;;;;4976026;28;45492;-58
2023/04/02 14:33:37;;;;;;;;;14.67;14.00;;;;;;;;4978410;28;46523;-59
2023/04/02 14:36:09;;;;;;;;;13.00;12.33;;;;;;;;4978798;28;46267;-58
2023/04/02 14:38:48;;;;;;;;;18.00;14.33;;;;;;;;4979051;28;45160;-59
2023/04/02 14:41:17;;;;;;;;;12.33;10.67;;;;;;;;4974997;28;45526;-58
2023/04/02 14:43:45;;;;;;;;;14.67;13.67;;;;;;;;4977176;28;45540;-58
2023/04/02 14:46:10;;;;;;;;;12.33;11.67;;;;;;;;4975825;28;47510;-58
2023/04/02 14:48:38;;;;;;;;;12.00;12.00;;;;;;;;4989441;28;45450;-58
2023/04/02 14:51:06;;;;;;;;;12.67;12.67;;;;;;;;4977822;28;45434;-59
2023/04/02 14:53:36;;;;;;;;;13.33;11.67;;;;;;;;4977108;28;45593;-59
2023/04/02 14:56:03;;;;;;;;;15.00;14.33;;;;;;;;4976171;28;45676;-58
2023/04/02 14:58:39;;;;;;;;;12.67;11.33;;;;;;;;4979208;28;45444;-57
2023/04/02 15:01:08;;;;;;;;;18.33;12.67;;;;;;;;4978340;28;45711;-58
2023/04/02 15:03:36;;;;;;;;;14.33;13.00;;;;;;;;4975504;28;45555;-58
2023/04/02 15:06:04;;;;;;;;;13.67;11.33;;;;;;;;4991680;28;47199;-59
2023/04/02 15:08:37;;;;;;;;;13.67;11.67;;;;;;;;4977721;28;45416;-57
2023/04/02 15:11:21;;;;;;;;;12.67;10.67;;;;;;;;4978384;28;45417;-60
2023/04/02 15:13:59;;;;;;;;;16.67;15.67;;;;;;;;4976572;28;45365;-58
2023/04/02 15:16:27;;;;;;;;;18.00;14.00;;;;;;;;4975065;28;46296;-57
2023/04/02 15:18:56;;;;;;;;;15.00;13.00;;;;;;;;4974880;28;45539;-57
2023/04/02 15:21:30;;;;;;;;;16.67;16.33;;;;;;;;4971844;28;45489;-58
2023/04/02 15:23:55;;;;;;;;;19.33;14.33;;;;;;;;4960959;28;45731;-58
2023/04/02 15:26:31;;;;;;;;;11.33;9.00;;;;;;;;4977296;28;46115;-58
2023/04/02 15:29:11;;;;;;;;;18.33;17.33;;;;;;;;4975409;28;45437;-58
2023/04/02 15:31:41;;;;;;;;;16.33;12.67;;;;;;;;4978842;28;45477;-57
2023/04/02 15:34:14;;;;;;;;;17.00;16.67;;;;;;;;4980573;28;45506;-56
2023/04/02 15:36:45;;;;;;;;;21.00;17.33;;;;;;;;4979110;28;45930;-57
2023/04/02 15:39:21;;;;;;;;;14.33;13.33;;;;;;;;4979776;28;45404;-58
2023/04/02 15:41:52;;;;;;;;;16.33;16.33;;;;;;;;4980084;28;45476;-58
2023/04/02 15:44:17;;;;;;;;;24.33;20.33;;;;;;;;4977459;28;45547;-59
2023/04/02 15:46:57;;;;;;;;;16.00;16.00;;;;;;;;4981186;28;46210;-58
2023/04/02 15:49:35;;;;;;;;;16.00;15.00;;;;;;;;4985283;28;45258;-58
2023/04/02 15:52:06;;;;;;;;;16.33;15.00;;;;;;;;4974142;28;45770;-58
2023/04/02 15:54:31;;;;;;;;;19.00;18.00;;;;;;;;4977245;28;45525;-58
2023/04/02 15:57:04;;;;;;;;;19.67;14.67;;;;;;;;4980661;28;46145;-58
2023/04/02 15:59:32;;;;;;;;;20.33;17.00;;;;;;;;4980043;28;45471;-58
2023/04/02 16:02:16;;;;;;;;;20.33;15.00;;;;;;;;4973407;28;45484;-58
2023/04/02 16:04:53;;;;;;;;;23.67;17.00;;;;;;;;4973963;28;45424;-58
2023/04/02 16:07:25;;;;;;;;;20.67;20.00;;;;;;;;4981274;28;46045;-58
2023/04/02 16:09:56;;;;;;;;;19.00;17.00;;;;;;;;4976778;28;45265;-58
2023/04/02 16:12:24;;;;;;;;;20.33;18.67;;;;;;;;4982152;28;45474;-58
2023/04/02 16:14:49;;;;;;;;;25.67;22.33;;;;;;;;4981060;28;45530;-58
2023/04/02 16:17:25;;;;;;;;;22.00;20.00;;;;;;;;4985235;28;45604;-58
2023/04/02 16:19:51;;;;;;;;;16.33;16.33;;;;;;;;4978523;28;45452;-58
2023/04/02 16:22:21;;;;;;;;;20.33;17.33;;;;;;;;4979088;28;45500;-58
2023/04/02 16:24:48;;;;;;;;;20.00;20.00;;;;;;;;4980565;28;45495;-58
2023/04/02 16:27:13;;;;;;;;;18.67;16.67;;;;;;;;4973113;28;45648;-58
2023/04/02 16:29:42;;;;;;;;;17.00;15.00;;;;;;;;4978415;28;45412;-58
2023/04/02 16:32:23;;;;;;;;;17.67;16.00;;;;;;;;4975137;28;45475;-58
2023/04/02 16:35:10;;;;;;;;;15.00;15.00;;;;;;;;4975501;28;45482;-58
2023/04/02 16:37:37;;;;;;;;;21.33;16.00;;;;;;;;4968749;28;45671;-58
2023/04/02 16:40:10;;;;;;;;;19.00;19.00;;;;;;;;4973463;28;45498;-58
2023/04/02 16:42:35;;;;;;;;;19.00;16.33;;;;;;;;4968392;28;45494;-58
2023/04/02 16:45:19;;;;;;;;;27.25;22.00;;;;;;;;4973706;28;45508;-58
2023/04/02 16:47:44;;;;;;;;;24.67;19.00;;;;;;;;4975365;28;45573;-58
2023/04/02 16:50:29;;;;;;;;;19.33;18.67;;;;;;;;4974327;28;46498;-58
2023/04/02 16:53:09;;;;;;;;;21.00;19.00;;;;;;;;4977656;28;45579;-58
2023/04/02 16:55:53;;;;;;;;;18.33;15.67;;;;;;;;4980203;28;45524;-58
2023/04/02 16:58:28;;;;;;;;;22.00;20.00;;;;;;;;4976971;28;46628;-58
2023/04/02 17:01:14;;;;;;;;;24.00;22.67;;;;;;;;4978970;28;45384;-58
2023/04/02 17:03:46;;;;;;;;;28.67;22.00;;;;;;;;4970203;28;45525;-58
2023/04/02 17:06:18;;;;;;;;;14.67;13.33;;;;;;;;4995110;28;45464;-58
2023/04/02 17:08:53;;;;;;;;;24.67;22.67;;;;;;;;4977615;28;46271;-58
2023/04/02 17:11:38;;;;;;;;;22.00;21.00;;;;;;;;4976868;28;45532;-58
2023/04/02 17:14:05;;;;;;;;;24.67;22.33;;;;;;;;4956501;28;45592;-58
2023/04/02 17:16:36;;;;;;;;;26.67;24.00;;;;;;;;4977131;28;45562;-58
2023/04/02 17:19:04;;;;;;;;;30.33;25.67;;;;;;;;4972432;28;45354;-58
2023/04/02 17:21:29;;;;;;;;;24.00;22.33;;;;;;;;4970057;28;45564;-59
2023/04/02 17:24:05;;;;;;;;;27.50;21.50;;;;;;;;4963369;28;45548;-56
2023/04/02 17:26:32;;;;;;;;;25.33;22.67;;;;;;;;4967779;28;45683;-55
2023/04/02 17:29:00;;;;;;;;;27.00;24.33;;;;;;;;4973326;28;45750;-56
2023/04/02 17:31:29;;;;;;;;;30.00;26.00;;;;;;;;4974138;28;44833;-54
2023/04/02 17:33:54;;;;;;;;;25.00;23.33;;;;;;;;4982249;28;45934;-58
2023/04/02 17:36:52;;;;;;;;;27.67;23.00;;;;;;;;4973813;28;45703;-64
2023/04/02 17:39:40;;;;;;;;;31.00;27.00;;;;;;;;4933935;28;45564;-61
2023/04/02 17:42:15;;;;;;;;;24.33;17.67;;;;;;;;4977062;28;45680;-61
2023/04/02 17:44:51;;;;;;;;;32.33;27.33;;;;;;;;4972159;28;45493;-67
2023/04/02 17:47:21;;;;;;;;;31.33;29.33;;;;;;;;4975530;28;45409;-67
2023/04/02 17:49:46;;;;;;;;;26.33;24.67;;;;;;;;4974800;28;45777;-60
2023/04/02 17:52:14;;;;;;;;;23.50;22.00;;;;;;;;4974917;28;45417;-62
2023/04/02 17:54:58;;;;;;;;;28.00;24.67;;;;;;;;4974190;28;45549;-63
2023/04/02 17:57:42;;;;;;;;;32.00;25.33;;;;;;;;4979241;28;45471;-63
2023/04/02 18:00:19;;;;;;;;;25.33;23.67;;;;;;;;4978222;28;47115;-67
2023/04/02 18:02:59;;;;;;;;;24.00;21.00;;;;;;;;4973329;28;45537;-67
2023/04/02 18:05:35;;;;;;;;;26.00;25.00;;;;;;;;4976923;28;45417;-67
2023/04/02 18:08:12;;;;;;;;;30.67;27.00;;;;;;;;4976155;28;45461;-67
2023/04/02 18:10:45;;;;;;;;;28.33;23.33;;;;;;;;4975889;28;45999;-62
2023/04/02 18:13:25;;;;;;;;;27.67;22.67;;;;;;;;4973809;28;45580;-63
2023/04/02 18:16:06;;;;;;;;;23.33;23.33;;;;;;;;4973176;28;46059;-63
2023/04/02 18:18:34;;;;;;;;;32.00;27.00;;;;;;;;4978306;28;46396;-63
2023/04/02 18:21:06;;;;;;;;;31.00;29.33;;;;;;;;4959757;28;48146;-66
2023/04/02 18:23:53;;;;;;;;;36.00;28.67;;;;;;;;4975173;28;46619;-65
2023/04/02 18:26:24;;;;;;;;;34.33;30.67;;;;;;;;4973240;28;45561;-66
2023/04/02 18:28:49;;;;;;;;;30.00;22.67;;;;;;;;4978992;28;45495;-63
2023/04/02 18:31:25;;;;;;;;;36.33;30.33;;;;;;;;4979023;28;45455;-66
2023/04/02 18:34:05;;;;;;;;;29.33;27.00;;;;;;;;4978680;28;45498;-67
2023/04/02 18:36:43;;;;;;;;;36.00;29.00;;;;;;;;4969299;28;45710;-64
2023/04/02 18:39:16;;;;;;;;;31.33;26.33;;;;;;;;4980488;28;45511;-63
2023/04/02 18:41:44;;;;;;;;;36.67;31.33;;;;;;;;4969093;28;45383;-63
2023/04/02 18:44:28;;;;;;;;;22.00;21.00;;;;;;;;4974223;28;45795;-63
2023/04/02 18:46:57;;;;;;;;;31.00;27.00;;;;;;;;4971626;28;46608;-63
2023/04/02 18:49:28;;;;;;;;;27.67;24.00;;;;;;;;4976422;28;45530;-63
2023/04/02 18:52:00;;;;;;;;;33.67;28.00;;;;;;;;4976490;28;46363;-63
2023/04/02 18:54:38;;;;;;;;;36.33;27.33;;;;;;;;4973088;28;45464;-63
2023/04/02 18:57:13;;;;;;;;;37.25;34.00;;;;;;;;4973839;28;45349;-63
2023/04/02 18:59:38;;;;;;;;;40.00;32.33;;;;;;;;4975934;28;45415;-63
2023/04/02 19:02:19;;;;;;;;;38.33;33.67;;;;;;;;4975148;28;45636;-63
2023/04/02 19:04:49;;;;;;;;;38.75;31.00;;;;;;;;4977180;28;45720;-63
2023/04/02 19:07:16;;;;;;;;;38.75;33.25;;;;;;;;4968321;28;45515;-63
2023/04/02 19:09:42;;;;;;;;;33.25;29.50;;;;;;;;4978038;28;45721;-63
2023/04/02 19:12:32;;;;;;;;;32.67;29.00;;;;;;;;4957278;28;47254;-63
2023/04/02 19:14:57;;;;;;;;;34.67;29.00;;;;;;;;4975649;28;45558;-63
2023/04/02 19:17:29;;;;;;;;;36.33;31.67;;;;;;;;4975425;28;45487;-63
2023/04/02 19:20:00;;;;;;;;;37.67;33.00;;;;;;;;4976481;28;45949;-66
2023/04/02 19:22:44;;;;;;;;;44.67;34.00;;;;;;;;4975449;28;46359;-63
2023/04/02 19:25:17;;;;;;;;;39.33;33.33;;;;;;;;4971486;28;45314;-63
2023/04/02 19:27:50;;;;;;;;;32.67;31.00;;;;;;;;4973660;28;45563;-63
2023/04/02 19:30:25;;;;;;;;;28.25;22.75;;;;;;;;4963476;28;46139;-63
2023/04/02 19:32:50;;;;;;;;;32.00;28.50;;;;;;;;4941624;28;48327;-63
2023/04/02 19:35:31;;;;;;;;;31.50;28.25;;;;;;;;4974111;28;45539;-64
2023/04/02 19:38:14;;;;;;;;;35.33;31.67;;;;;;;;4979230;28;45933;-63
2023/04/02 19:40:42;;;;;;;;;33.00;29.33;;;;;;;;4973692;28;45791;-63
2023/04/02 19:43:08;;;;;;;;;33.00;28.00;;;;;;;;4973033;28;47191;-63